sensor_id;sensor_type;location;lat;lon;timestamp;pressure;altitude;pressure_sealevel;temperature;humidity
46129;BME280;31860;45.186;5.790;2023-05-25T00:00:06;98952.59;;;20.31;100.00
46129;BME280;31860;45.186;5.790;2023-05-25T00:02:32;98950.88;;;20.30;100.00
46129;BME280;31860;45.186;5.790;2023-05-25T00:04:58;98948.28;;;20.29;100.00
46129;BME280;31860;45.186;5.790;2023-05-25T00:07:25;98941.19;;;20.29;100.00
46129;BME280;31860;45.186;5.790;2023-05-25T00:09:50;98945.69;;;20.27;100.00
46129;BME280;31860;45.186;5.790;2023-05-25T00:12:16;98947.50;;;20.27;100.00
46129;BME280;31860;45.186;5.790;2023-05-25T00:14:41;98940.38;;;20.27;100.00
46129;BME280;31860;45.186;5.790;2023-05-25T00:17:06;98937.81;;;20.26;100.00
46129;BME280;31860;45.186;5.790;2023-05-25T00:19:34;98937.81;;;20.26;100.00
46129;BME280;31860;45.186;5.790;2023-05-25T00:21:59;98935.22;;;20.24;100.00
46129;BME280;31860;45.186;5.790;2023-05-25T00:24:28;98932.69;;;20.21;100.00
46129;BME280;31860;45.186;5.790;2023-05-25T00:26:57;98943.38;;;20.20;100.00
46129;BME280;31860;45.186;5.790;2023-05-25T00:29:23;98934.63;;;20.18;100.00
46129;BME280;31860;45.186;5.790;2023-05-25T00:31:48;98934.66;;;20.16;100.00
46129;BME280;31860;45.186;5.790;2023-05-25T00:34:15;98927.63;;;20.15;100.00
46129;BME280;31860;45.186;5.790;2023-05-25T00:36:41;98931.19;;;20.14;100.00
46129;BME280;31860;45.186;5.790;2023-05-25T00:39:16;98937.56;;;20.10;100.00
46129;BME280;31860;45.186;5.790;2023-05-25T00:41:46;98936.75;;;20.08;100.00
46129;BME280;31860;45.186;5.790;2023-05-25T00:44:12;98944.84;;;20.05;100.00
46129;BME280;31860;45.186;5.790;2023-05-25T00:46:50;98944.13;;;20.02;100.00
46129;BME280;31860;45.186;5.790;2023-05-25T00:49:17;98946.88;;;19.99;100.00
46129;BME280;31860;45.186;5.790;2023-05-25T00:51:44;98950.56;;;19.96;100.00
46129;BME280;31860;45.186;5.790;2023-05-25T00:54:14;98946.22;;;19.94;100.00
46129;BME280;31860;45.186;5.790;2023-05-25T00:56:43;98950.63;;;19.95;100.00
46129;BME280;31860;45.186;5.790;2023-05-25T00:59:16;98949.88;;;19.91;100.00
46129;BME280;31860;45.186;5.790;2023-05-25T01:01:45;98950.00;;;19.88;100.00
46129;BME280;31860;45.186;5.790;2023-05-25T01:04:14;98950.06;;;19.87;100.00
46129;BME280;31860;45.186;5.790;2023-05-25T01:06:43;98946.63;;;19.84;100.00
46129;BME280;31860;45.186;5.790;2023-05-25T01:09:15;98953.84;;;19.81;100.00
46129;BME280;31860;45.186;5.790;2023-05-25T01:11:47;98948.66;;;19.78;100.00
46129;BME280;31860;45.186;5.790;2023-05-25T01:14:16;98949.59;;;19.77;100.00
46129;BME280;31860;45.186;5.790;2023-05-25T01:16:42;98961.06;;;19.77;100.00
46129;BME280;31860;45.186;5.790;2023-05-25T01:19:09;98949.59;;;19.77;100.00
46129;BME280;31860;45.186;5.790;2023-05-25T01:27:35;98951.56;;;19.72;100.00
46129;BME280;31860;45.186;5.790;2023-05-25T01:29:36;98956.88;;;19.72;100.00
46129;BME280;31860;45.186;5.790;2023-05-25T01:32:02;98951.56;;;19.72;100.00
46129;BME280;31860;45.186;5.790;2023-05-25T01:34:29;98957.84;;;19.69;100.00
46129;BME280;31860;45.186;5.790;2023-05-25T01:36:55;98958.81;;;19.67;100.00
46129;BME280;31860;45.186;5.790;2023-05-25T01:39:21;98966.84;;;19.65;100.00
46129;BME280;31860;45.186;5.790;2023-05-25T01:41:46;98957.13;;;19.66;100.00
46129;BME280;31860;45.186;5.790;2023-05-25T01:44:12;98967.78;;;19.64;100.00
46129;BME280;31860;45.186;5.790;2023-05-25T01:46:39;98966.97;;;19.62;100.00
46129;BME280;31860;45.186;5.790;2023-05-25T01:51:52;98967.88;;;19.61;100.00
46129;BME280;31860;45.186;5.790;2023-05-25T01:54:23;98960.97;;;19.57;100.00
46129;BME280;31860;45.186;5.790;2023-05-25T01:56:53;98960.97;;;19.57;100.00
46129;BME280;31860;45.186;5.790;2023-05-25T01:59:23;98959.19;;;19.58;100.00
46129;BME280;31860;45.186;5.790;2023-05-25T02:01:50;98966.34;;;19.56;100.00
46129;BME280;31860;45.186;5.790;2023-05-25T02:04:16;98966.34;;;19.56;100.00
46129;BME280;31860;45.186;5.790;2023-05-25T02:06:42;98964.63;;;19.55;100.00
46129;BME280;31860;45.186;5.790;2023-05-25T02:09:07;98953.16;;;19.54;100.00
46129;BME280;31860;45.186;5.790;2023-05-25T02:11:33;98958.47;;;19.54;100.00
46129;BME280;31860;45.186;5.790;2023-05-25T02:13:58;98958.53;;;19.53;100.00
46129;BME280;31860;45.186;5.790;2023-05-25T02:16:23;98963.91;;;19.51;100.00
46129;BME280;31860;45.186;5.790;2023-05-25T02:18:49;98963.91;;;19.51;100.00
46129;BME280;31860;45.186;5.790;2023-05-25T02:21:15;98964.72;;;19.52;100.00
46129;BME280;31860;45.186;5.790;2023-05-25T02:23:40;98965.59;;;19.52;100.00
46129;BME280;31860;45.186;5.790;2023-05-25T02:26:05;98968.25;;;19.52;100.00
46129;BME280;31860;45.186;5.790;2023-05-25T02:28:31;98970.03;;;19.52;100.00
46129;BME280;31860;45.186;5.790;2023-05-25T02:30:56;98971.84;;;19.51;100.00
46129;BME280;31860;45.186;5.790;2023-05-25T02:33:22;98965.69;;;19.51;100.00
46129;BME280;31860;45.186;5.790;2023-05-25T02:35:48;98960.44;;;19.49;100.00
46129;BME280;31860;45.186;5.790;2023-05-25T02:38:13;98965.84;;;19.46;100.00
46129;BME280;31860;45.186;5.790;2023-05-25T02:40:39;98964.94;;;19.47;100.00
46129;BME280;31860;45.186;5.790;2023-05-25T02:43:04;98952.59;;;19.46;100.00
46129;BME280;31860;45.186;5.790;2023-05-25T02:45:29;98960.63;;;19.45;100.00
46129;BME280;31860;45.186;5.790;2023-05-25T02:47:55;98951.84;;;19.43;100.00
46129;BME280;31860;45.186;5.790;2023-05-25T02:50:20;98956.34;;;19.41;100.00
46129;BME280;31860;45.186;5.790;2023-05-25T02:52:45;98954.66;;;19.40;100.00
46129;BME280;31860;45.186;5.790;2023-05-25T02:55:11;98944.03;;;19.40;100.00
46129;BME280;31860;45.186;5.790;2023-05-25T02:57:39;98945.81;;;19.39;100.00
46129;BME280;31860;45.186;5.790;2023-05-25T03:00:05;98944.03;;;19.40;100.00
46129;BME280;31860;45.186;5.790;2023-05-25T03:02:31;98947.66;;;19.37;100.00
46129;BME280;31860;45.186;5.790;2023-05-25T03:04:57;98950.38;;;19.36;100.00
46129;BME280;31860;45.186;5.790;2023-05-25T03:07:23;98949.50;;;19.35;100.00
46129;BME280;31860;45.186;5.790;2023-05-25T03:09:51;98948.63;;;19.35;100.00
46129;BME280;31860;45.186;5.790;2023-05-25T03:12:17;98949.56;;;19.34;100.00
46129;BME280;31860;45.186;5.790;2023-05-25T03:14:42;98947.81;;;19.34;100.00
46129;BME280;31860;45.186;5.790;2023-05-25T03:17:08;98941.63;;;19.34;100.00
46129;BME280;31860;45.186;5.790;2023-05-25T03:19:33;98942.53;;;19.33;100.00
46129;BME280;31860;45.186;5.790;2023-05-25T03:21:59;98948.72;;;19.33;100.00
46129;BME280;31860;45.186;5.790;2023-05-25T03:24:24;98944.34;;;19.31;100.00
46129;BME280;31860;45.186;5.790;2023-05-25T03:26:51;98939.06;;;19.31;100.00
46129;BME280;31860;45.186;5.790;2023-05-25T03:29:16;98942.63;;;19.30;100.00
46129;BME280;31860;45.186;5.790;2023-05-25T03:31:42;98941.69;;;19.31;100.00
46129;BME280;31860;45.186;5.790;2023-05-25T03:34:07;98946.22;;;19.29;100.00
46129;BME280;31860;45.186;5.790;2023-05-25T03:36:32;98956.00;;;19.27;100.00
46129;BME280;31860;45.186;5.790;2023-05-25T03:38:58;98951.63;;;19.26;100.00
46129;BME280;31860;45.186;5.790;2023-05-25T03:41:24;98947.28;;;19.23;100.00
46129;BME280;31860;45.186;5.790;2023-05-25T03:43:49;98949.94;;;19.23;100.00
46129;BME280;31860;45.186;5.790;2023-05-25T03:46:15;98944.72;;;19.22;100.00
46129;BME280;31860;45.186;5.790;2023-05-25T03:48:40;98946.56;;;19.20;100.00
46129;BME280;31860;45.186;5.790;2023-05-25T03:51:06;98942.19;;;19.19;100.00
46129;BME280;31860;45.186;5.790;2023-05-25T03:53:31;98944.94;;;19.16;100.00
46129;BME280;31860;45.186;5.790;2023-05-25T03:55:57;98947.59;;;19.16;100.00
46129;BME280;31860;45.186;5.790;2023-05-25T03:58:22;98945.88;;;19.15;100.00
46129;BME280;31860;45.186;5.790;2023-05-25T04:00:47;98951.34;;;19.10;100.00
46129;BME280;31860;45.186;5.790;2023-05-25T04:03:14;98953.16;;;19.10;100.00
46129;BME280;31860;45.186;5.790;2023-05-25T04:05:40;98950.59;;;19.07;100.00
46129;BME280;31860;45.186;5.790;2023-05-25T04:08:06;98953.25;;;19.07;100.00
46129;BME280;31860;45.186;5.790;2023-05-25T04:10:32;98951.59;;;19.04;100.00
46129;BME280;31860;45.186;5.790;2023-05-25T04:12:58;98954.25;;;19.04;100.00
46129;BME280;31860;45.186;5.790;2023-05-25T04:15:24;98956.03;;;19.04;100.00
46129;BME280;31860;45.186;5.790;2023-05-25T04:17:49;98961.19;;;19.07;100.00
46129;BME280;31860;45.186;5.790;2023-05-25T04:20:15;98962.94;;;19.08;100.00
46129;BME280;31860;45.186;5.790;2023-05-25T04:22:41;98957.69;;;19.06;100.00
46129;BME280;31860;45.186;5.790;2023-05-25T04:25:08;98963.00;;;19.06;100.00
46129;BME280;31860;45.186;5.790;2023-05-25T04:27:34;98962.13;;;19.06;100.00
46129;BME280;31860;45.186;5.790;2023-05-25T04:30:01;98967.41;;;19.06;100.00
46129;BME280;31860;45.186;5.790;2023-05-25T04:32:26;98967.47;;;19.04;100.00
46129;BME280;31860;45.186;5.790;2023-05-25T04:34:54;98963.03;;;19.05;100.00
46129;BME280;31860;45.186;5.790;2023-05-25T04:37:21;98963.03;;;19.05;100.00
46129;BME280;31860;45.186;5.790;2023-05-25T04:39:46;98964.72;;;19.07;100.00
46129;BME280;31860;45.186;5.790;2023-05-25T04:42:11;98963.03;;;19.05;100.00
46129;BME280;31860;45.186;5.790;2023-05-25T04:44:37;98971.84;;;19.05;100.00
46129;BME280;31860;45.186;5.790;2023-05-25T04:47:04;98966.47;;;19.07;100.00
46129;BME280;31860;45.186;5.790;2023-05-25T04:49:31;98969.13;;;19.07;100.00
46129;BME280;31860;45.186;5.790;2023-05-25T04:51:56;98968.28;;;19.06;100.00
46129;BME280;31860;45.186;5.790;2023-05-25T04:54:22;98967.47;;;19.04;100.00
46129;BME280;31860;45.186;5.790;2023-05-25T04:56:47;98973.63;;;19.05;100.00
46129;BME280;31860;45.186;5.790;2023-05-25T04:59:13;98977.13;;;19.05;100.00
46129;BME280;31860;45.186;5.790;2023-05-25T05:01:38;98976.22;;;19.06;100.00
46129;BME280;31860;45.186;5.790;2023-05-25T05:04:06;98985.81;;;19.09;100.00
46129;BME280;31860;45.186;5.790;2023-05-25T05:06:32;98982.28;;;19.10;100.00
46129;BME280;31860;45.186;5.790;2023-05-25T05:08:58;98987.56;;;19.10;100.00
46129;BME280;31860;45.186;5.790;2023-05-25T05:11:24;98993.72;;;19.10;100.00
46129;BME280;31860;45.186;5.790;2023-05-25T05:13:49;98991.94;;;19.11;100.00
46129;BME280;31860;45.186;5.790;2023-05-25T05:16:15;99003.41;;;19.11;100.00
46129;BME280;31860;45.186;5.790;2023-05-25T05:18:40;99006.94;;;19.10;100.00
46129;BME280;31860;45.186;5.790;2023-05-25T05:21:06;98997.22;;;19.11;100.00
46129;BME280;31860;45.186;5.790;2023-05-25T05:23:31;98998.97;;;19.12;100.00
46129;BME280;31860;45.186;5.790;2023-05-25T05:25:58;99008.69;;;19.11;100.00
46129;BME280;31860;45.186;5.790;2023-05-25T05:28:24;99011.34;;;19.11;100.00
46129;BME280;31860;45.186;5.790;2023-05-25T05:30:52;99010.31;;;19.15;100.00
46129;BME280;31860;45.186;5.790;2023-05-25T05:33:17;99017.38;;;19.15;100.00
46129;BME280;31860;45.186;5.790;2023-05-25T05:35:43;99013.78;;;19.16;100.00
46129;BME280;31860;45.186;5.790;2023-05-25T05:38:08;99019.06;;;19.17;100.00
46129;BME280;31860;45.186;5.790;2023-05-25T05:40:34;99019.09;;;19.16;100.00
46129;BME280;31860;45.186;5.790;2023-05-25T05:42:59;99019.91;;;19.18;100.00
46129;BME280;31860;45.186;5.790;2023-05-25T05:45:24;99015.47;;;19.18;100.00
46129;BME280;31860;45.186;5.790;2023-05-25T05:47:50;99026.06;;;19.18;100.00
46129;BME280;31860;45.186;5.790;2023-05-25T05:50:15;99033.94;;;19.20;100.00
46129;BME280;31860;45.186;5.790;2023-05-25T05:52:40;99030.41;;;19.21;100.00
46129;BME280;31860;45.186;5.790;2023-05-25T05:55:06;99036.44;;;19.24;100.00
46129;BME280;31860;45.186;5.790;2023-05-25T05:57:32;99040.81;;;19.25;100.00
46129;BME280;31860;45.186;5.790;2023-05-25T05:59:57;99045.19;;;19.26;100.00
46129;BME280;31860;45.186;5.790;2023-05-25T06:02:22;99038.97;;;19.27;100.00
46129;BME280;31860;45.186;5.790;2023-05-25T06:04:48;99038.94;;;19.29;100.00
46129;BME280;31860;45.186;5.790;2023-05-25T06:07:13;99046.00;;;19.28;100.00
46129;BME280;31860;45.186;5.790;2023-05-25T06:09:38;99046.91;;;19.27;100.00
46129;BME280;31860;45.186;5.790;2023-05-25T06:12:04;99047.72;;;19.29;100.00
46129;BME280;31860;45.186;5.790;2023-05-25T06:14:30;99048.59;;;19.30;100.00
46129;BME280;31860;45.186;5.790;2023-05-25T06:16:55;99051.19;;;19.31;100.00
46129;BME280;31860;45.186;5.790;2023-05-25T06:19:21;99063.56;;;19.32;100.00
46129;BME280;31860;45.186;5.790;2023-05-25T06:21:46;99056.44;;;19.33;100.00
46129;BME280;31860;45.186;5.790;2023-05-25T06:24:13;99065.25;;;19.33;99.86
46129;BME280;31860;45.186;5.790;2023-05-25T06:26:39;99067.00;;;19.34;99.95
46129;BME280;31860;45.186;5.790;2023-05-25T06:29:04;99071.44;;;19.34;99.74
46129;BME280;31860;45.186;5.790;2023-05-25T06:31:29;99073.22;;;19.33;99.23
46129;BME280;31860;45.186;5.790;2023-05-25T06:33:55;99073.16;;;19.35;99.36
46129;BME280;31860;45.186;5.790;2023-05-25T06:36:20;99071.38;;;19.35;98.66
46129;BME280;31860;45.186;5.790;2023-05-25T06:38:46;99076.66;;;19.35;97.66
46129;BME280;31860;45.186;5.790;2023-05-25T06:41:11;99077.59;;;19.34;97.02
46129;BME280;31860;45.186;5.790;2023-05-25T06:43:39;99079.31;;;19.35;96.36
46129;BME280;31860;45.186;5.790;2023-05-25T06:46:04;99083.75;;;19.35;95.65
46129;BME280;31860;45.186;5.790;2023-05-25T06:48:30;99086.38;;;19.35;95.11
46129;BME280;31860;45.186;5.790;2023-05-25T06:50:55;99084.63;;;19.35;95.79
46129;BME280;31860;45.186;5.790;2023-05-25T06:53:21;99091.81;;;19.32;95.79
46129;BME280;31860;45.186;5.790;2023-05-25T06:55:46;99097.06;;;19.33;95.23
46129;BME280;31860;45.186;5.790;2023-05-25T06:58:11;99094.34;;;19.35;95.45
46129;BME280;31860;45.186;5.790;2023-05-25T07:00:37;99088.22;;;19.33;95.95
46129;BME280;31860;45.186;5.790;2023-05-25T07:03:02;99096.28;;;19.30;96.46
46129;BME280;31860;45.186;5.790;2023-05-25T07:05:28;99092.75;;;19.29;97.25
46129;BME280;31860;45.186;5.790;2023-05-25T07:07:53;99097.22;;;19.29;97.01
46129;BME280;31860;45.186;5.790;2023-05-25T07:10:18;99098.97;;;19.28;97.25
46129;BME280;31860;45.186;5.790;2023-05-25T07:12:44;99099.88;;;19.27;98.20
46129;BME280;31860;45.186;5.790;2023-05-25T07:15:10;99111.47;;;19.25;99.45
46129;BME280;31860;45.186;5.790;2023-05-25T07:17:35;99114.13;;;19.25;100.00
46129;BME280;31860;45.186;5.790;2023-05-25T07:20:01;99116.81;;;19.23;100.00
46129;BME280;31860;45.186;5.790;2023-05-25T07:22:26;99117.88;;;19.19;100.00
46129;BME280;31860;45.186;5.790;2023-05-25T07:24:52;99122.28;;;19.19;100.00
46129;BME280;31860;45.186;5.790;2023-05-25T07:27:17;99128.47;;;19.18;100.00
46129;BME280;31860;45.186;5.790;2023-05-25T07:29:43;99130.31;;;19.16;100.00
46129;BME280;31860;45.186;5.790;2023-05-25T07:32:09;99119.72;;;19.16;100.00
46129;BME280;31860;45.186;5.790;2023-05-25T07:34:34;99136.50;;;19.16;100.00
46129;BME280;31860;45.186;5.790;2023-05-25T07:36:59;99136.56;;;19.15;100.00
46129;BME280;31860;45.186;5.790;2023-05-25T07:39:25;99151.50;;;19.16;100.00
46129;BME280;31860;45.186;5.790;2023-05-25T07:41:50;99141.78;;;19.16;100.00
46129;BME280;31860;45.186;5.790;2023-05-25T07:44:16;99147.09;;;19.16;100.00
46129;BME280;31860;45.186;5.790;2023-05-25T07:46:41;99154.06;;;19.19;100.00
46129;BME280;31860;45.186;5.790;2023-05-25T07:49:07;99149.66;;;19.18;100.00
46129;BME280;31860;45.186;5.790;2023-05-25T07:51:37;99154.06;;;19.19;100.00
46129;BME280;31860;45.186;5.790;2023-05-25T07:54:02;99156.81;;;19.16;100.00
46129;BME280;31860;45.186;5.790;2023-05-25T07:56:28;99164.75;;;19.16;100.00
46129;BME280;31860;45.186;5.790;2023-05-25T07:58:53;99163.91;;;19.15;100.00
46129;BME280;31860;45.186;5.790;2023-05-25T08:01:19;99168.34;;;19.15;100.00
46129;BME280;31860;45.186;5.790;2023-05-25T08:03:44;99169.16;;;19.17;100.00
46129;BME280;31860;45.186;5.790;2023-05-25T08:06:09;99177.97;;;19.17;100.00
46129;BME280;31860;45.186;5.790;2023-05-25T08:08:35;99178.78;;;19.19;100.00
46129;BME280;31860;45.186;5.790;2023-05-25T08:11:01;99169.91;;;19.20;100.00
46129;BME280;31860;45.186;5.790;2023-05-25T08:13:27;99182.25;;;19.20;100.00
46129;BME280;31860;45.186;5.790;2023-05-25T08:15:52;99183.09;;;19.22;100.00
46129;BME280;31860;45.186;5.790;2023-05-25T08:18:17;99184.75;;;19.24;100.00
46129;BME280;31860;45.186;5.790;2023-05-25T08:20:43;99195.25;;;19.27;100.00
46129;BME280;31860;45.186;5.790;2023-05-25T08:23:09;99196.94;;;19.30;100.00
46129;BME280;31860;45.186;5.790;2023-05-25T08:25:34;99204.81;;;19.31;100.00
46129;BME280;31860;45.186;5.790;2023-05-25T08:27:59;99195.13;;;19.32;100.00
46129;BME280;31860;45.186;5.790;2023-05-25T08:30:25;99208.22;;;19.36;100.00
46129;BME280;31860;45.186;5.790;2023-05-25T08:32:50;99207.34;;;19.36;100.00
46129;BME280;31860;45.186;5.790;2023-05-25T08:35:16;99208.09;;;19.39;100.00
46129;BME280;31860;45.186;5.790;2023-05-25T08:37:42;99215.94;;;19.42;100.00
46129;BME280;31860;45.186;5.790;2023-05-25T08:40:13;99224.63;;;19.46;100.00
46129;BME280;31860;45.186;5.790;2023-05-25T08:42:41;99221.91;;;19.49;100.00
46129;BME280;31860;45.186;5.790;2023-05-25T08:45:07;99228.88;;;19.51;100.00
46129;BME280;31860;45.186;5.790;2023-05-25T08:47:39;99231.47;;;19.53;100.00
46129;BME280;31860;45.186;5.790;2023-05-25T08:50:09;99227.78;;;19.57;100.00
46129;BME280;31860;45.186;5.790;2023-05-25T08:52:37;99227.66;;;19.60;100.00
46129;BME280;31860;45.186;5.790;2023-05-25T08:55:05;99239.03;;;19.63;100.00
46129;BME280;31860;45.186;5.790;2023-05-25T08:57:44;99229.25;;;19.65;100.00
46129;BME280;31860;45.186;5.790;2023-05-25T09:00:13;99234.41;;;19.68;100.00
46129;BME280;31860;45.186;5.790;2023-05-25T09:05:32;99245.69;;;19.75;100.00
46129;BME280;31860;45.186;5.790;2023-05-25T09:07:58;99254.50;;;19.75;100.00
46129;BME280;31860;45.186;5.790;2023-05-25T09:10:25;99255.41;;;19.74;100.00
46129;BME280;31860;45.186;5.790;2023-05-25T09:12:52;99250.03;;;19.76;100.00
46129;BME280;31860;45.186;5.790;2023-05-25T09:15:18;99251.78;;;19.77;100.00
46129;BME280;31860;45.186;5.790;2023-05-25T09:17:44;99258.72;;;19.81;100.00
46129;BME280;31860;45.186;5.790;2023-05-25T09:20:10;99263.00;;;19.85;100.00
46129;BME280;31860;45.186;5.790;2023-05-25T09:22:37;99265.47;;;19.90;100.00
46129;BME280;31860;45.186;5.790;2023-05-25T09:25:05;99265.41;;;19.91;100.00
46129;BME280;31860;45.186;5.790;2023-05-25T09:27:34;99257.34;;;19.94;100.00
46129;BME280;31860;45.186;5.790;2023-05-25T09:30:00;99265.31;;;19.94;100.00
46129;BME280;31860;45.186;5.790;2023-05-25T09:32:26;99272.31;;;19.95;100.00
46129;BME280;31860;45.186;5.790;2023-05-25T09:34:52;99274.88;;;19.98;100.00
46129;BME280;31860;45.186;5.790;2023-05-25T09:37:20;99281.00;;;20.00;100.00
46129;BME280;31860;45.186;5.790;2023-05-25T09:39:45;99284.41;;;20.04;100.00
46129;BME280;31860;45.186;5.790;2023-05-25T09:42:12;99280.81;;;20.05;100.00
46129;BME280;31860;45.186;5.790;2023-05-25T09:44:38;99290.44;;;20.07;100.00
46129;BME280;31860;45.186;5.790;2023-05-25T09:47:04;99291.25;;;20.09;100.00
46129;BME280;31860;45.186;5.790;2023-05-25T09:49:29;99297.44;;;20.10;100.00
46129;BME280;31860;45.186;5.790;2023-05-25T09:51:55;99296.38;;;20.14;100.00
46129;BME280;31860;45.186;5.790;2023-05-25T09:54:21;99305.13;;;20.17;100.00
46129;BME280;31860;45.186;5.790;2023-05-25T09:56:50;99306.03;;;20.16;100.00
46129;BME280;31860;45.186;5.790;2023-05-25T09:59:16;99313.03;;;20.19;100.00
46129;BME280;31860;45.186;5.790;2023-05-25T10:01:41;99318.22;;;20.22;100.00
46129;BME280;31860;45.186;5.790;2023-05-25T10:04:08;99317.25;;;20.24;100.00
46129;BME280;31860;45.186;5.790;2023-05-25T10:06:33;99317.19;;;20.26;100.00
46129;BME280;31860;45.186;5.790;2023-05-25T10:09:00;99317.03;;;20.30;100.00
46129;BME280;31860;45.186;5.790;2023-05-25T10:11:27;99316.03;;;20.33;100.00
46129;BME280;31860;45.186;5.790;2023-05-25T10:13:54;99323.91;;;20.36;100.00
46129;BME280;31860;45.186;5.790;2023-05-25T10:16:24;99329.97;;;20.39;100.00
46129;BME280;31860;45.186;5.790;2023-05-25T10:21:21;99323.31;;;20.51;100.00
46129;BME280;31860;45.186;5.790;2023-05-25T10:23:50;99325.78;;;20.55;100.00
46129;BME280;31860;45.186;5.790;2023-05-25T10:26:23;99323.78;;;20.62;100.00
46129;BME280;31860;45.186;5.790;2023-05-25T10:28:55;99320.16;;;20.64;100.00
46129;BME280;31860;45.186;5.790;2023-05-25T10:31:21;99324.41;;;20.68;100.00
46129;BME280;31860;45.186;5.790;2023-05-25T10:33:47;99326.13;;;20.69;100.00
46129;BME280;31860;45.186;5.790;2023-05-25T10:36:14;99324.34;;;20.70;100.00
46129;BME280;31860;45.186;5.790;2023-05-25T10:38:42;99321.69;;;20.70;100.00
46129;BME280;31860;45.186;5.790;2023-05-25T10:41:10;99320.81;;;20.69;100.00
46129;BME280;31860;45.186;5.790;2023-05-25T10:43:39;99325.25;;;20.69;100.00
46129;BME280;31860;45.186;5.790;2023-05-25T10:46:05;99330.50;;;20.70;100.00
46129;BME280;31860;45.186;5.790;2023-05-25T10:48:38;99333.22;;;20.69;100.00
46129;BME280;31860;45.186;5.790;2023-05-25T10:51:04;99335.88;;;20.69;100.00
46129;BME280;31860;45.186;5.790;2023-05-25T10:53:30;99330.56;;;20.69;100.00
46129;BME280;31860;45.186;5.790;2023-05-25T10:56:04;99330.50;;;20.70;100.00
46129;BME280;31860;45.186;5.790;2023-05-25T10:58:30;99326.06;;;20.71;100.00
46129;BME280;31860;45.186;5.790;2023-05-25T11:06:07;99330.28;;;20.76;100.00
46129;BME280;31860;45.186;5.790;2023-05-25T11:09:06;99333.69;;;20.80;100.00
46129;BME280;31860;45.186;5.790;2023-05-25T11:14:39;99323.03;;;20.82;100.00
46129;BME280;31860;45.186;5.790;2023-05-25T11:19:42;99314.75;;;20.89;100.00
46129;BME280;31860;45.186;5.790;2023-05-25T11:22:30;99306.59;;;20.94;100.00
46129;BME280;31860;45.186;5.790;2023-05-25T11:24:58;99311.72;;;20.98;100.00
46129;BME280;31860;45.186;5.790;2023-05-25T11:27:44;99310.72;;;21.02;100.00
46129;BME280;31860;45.186;5.790;2023-05-25T11:30:11;99314.91;;;21.08;100.00
46129;BME280;31860;45.186;5.790;2023-05-25T11:32:47;99326.28;;;21.11;100.00
46129;BME280;31860;45.186;5.790;2023-05-25T11:35:14;99322.56;;;21.15;100.00
46129;BME280;31860;45.186;5.790;2023-05-25T11:37:41;99315.41;;;21.17;100.00
46129;BME280;31860;45.186;5.790;2023-05-25T11:40:13;99318.88;;;21.19;100.00
46129;BME280;31860;45.186;5.790;2023-05-25T11:42:40;99306.34;;;21.21;100.00
46129;BME280;31860;45.186;5.790;2023-05-25T11:45:10;99308.03;;;21.24;100.00
46129;BME280;31860;45.186;5.790;2023-05-25T11:47:35;99309.72;;;21.26;100.00
46129;BME280;31860;45.186;5.790;2023-05-25T11:50:00;99307.78;;;21.30;100.00
46129;BME280;31860;45.186;5.790;2023-05-25T11:52:26;99314.69;;;21.34;100.00
46129;BME280;31860;45.186;5.790;2023-05-25T11:54:52;99317.16;;;21.38;100.00
46129;BME280;31860;45.186;5.790;2023-05-25T11:57:22;99308.13;;;21.42;100.00
46129;BME280;31860;45.186;5.790;2023-05-25T12:02:17;99312.22;;;21.51;100.00
46129;BME280;31860;45.186;5.790;2023-05-25T12:04:59;99310.22;;;21.56;100.00
46129;BME280;31860;45.186;5.790;2023-05-25T12:07:28;99300.38;;;21.58;100.00
46129;BME280;31860;45.186;5.790;2023-05-25T12:10:05;99299.38;;;21.60;100.00
46129;BME280;31860;45.186;5.790;2023-05-25T12:12:40;99288.53;;;21.65;100.00
46129;BME280;31860;45.186;5.790;2023-05-25T12:15:16;99292.78;;;21.69;100.00
46129;BME280;31860;45.186;5.790;2023-05-25T12:17:43;99297.06;;;21.73;100.00
46129;BME280;31860;45.186;5.790;2023-05-25T12:20:10;99297.78;;;21.77;100.00
46129;BME280;31860;45.186;5.790;2023-05-25T12:22:38;99294.13;;;21.79;100.00
46129;BME280;31860;45.186;5.790;2023-05-25T12:25:05;99298.47;;;21.82;100.00
46129;BME280;31860;45.186;5.790;2023-05-25T12:27:31;99294.81;;;21.84;100.00
46129;BME280;31860;45.186;5.790;2023-05-25T12:29:57;99294.75;;;21.86;100.00
46129;BME280;31860;45.186;5.790;2023-05-25T12:32:23;99294.72;;;21.87;100.00
46129;BME280;31860;45.186;5.790;2023-05-25T12:34:48;99284.84;;;21.89;100.00
46129;BME280;31860;45.186;5.790;2023-05-25T12:37:20;99292.69;;;21.92;100.00
46129;BME280;31860;45.186;5.790;2023-05-25T12:39:47;99296.22;;;21.93;100.00
46129;BME280;31860;45.186;5.790;2023-05-25T12:42:14;99298.75;;;21.96;100.00
46129;BME280;31860;45.186;5.790;2023-05-25T12:44:42;99302.19;;;21.98;100.00
46129;BME280;31860;45.186;5.790;2023-05-25T12:47:19;99295.88;;;22.00;100.00
46129;BME280;31860;45.186;5.790;2023-05-25T12:49:52;99293.09;;;22.03;100.00
46129;BME280;31860;45.186;5.790;2023-05-25T12:52:32;99298.25;;;22.06;100.00
46129;BME280;31860;45.186;5.790;2023-05-25T12:55:17;99296.34;;;22.10;100.00
46129;BME280;31860;45.186;5.790;2023-05-25T12:57:43;99298.94;;;22.11;97.93
46129;BME280;31860;45.186;5.790;2023-05-25T13:00:09;99297.91;;;22.14;95.21
46129;BME280;31860;45.186;5.790;2023-05-25T13:02:34;99296.03;;;22.16;94.99
46129;BME280;31860;45.186;5.790;2023-05-25T13:04:59;99291.44;;;22.19;93.93
46129;BME280;31860;45.186;5.790;2023-05-25T13:07:25;99286.00;;;22.22;92.15
46129;BME280;31860;45.186;5.790;2023-05-25T13:09:51;99283.25;;;22.24;90.48
46129;BME280;31860;45.186;5.790;2023-05-25T13:12:17;99286.72;;;22.26;90.44
46129;BME280;31860;45.186;5.790;2023-05-25T13:14:43;99276.94;;;22.26;88.05